Time;durP1;ratioP1;P1;durP2;ratioP2;P2;SDS_P1;SDS_P2;PMS_P1;PMS_P2;Temp;Humidity;BMP_temperature;BMP_pressure;BME280_temperature;BME280_humidity;BME280_pressure;Samples;Min_cycle;Max_cycle;Signal;HPM_P1;HPM_P2
2023/10/07 00:00:40;;;;;;;21.05;4.88;;;17.70;99.90;;;;;;5113434;28;20043;-71
2023/10/07 00:03:07;;;;;;;16.48;4.38;;;17.70;99.90;;;;;;5095040;28;20067;-71
2023/10/07 00:05:35;;;;;;;13.13;4.38;;;17.70;99.90;;;;;;5078611;28;20048;-70
2023/10/07 00:08:07;;;;;;;14.23;4.65;;;17.70;99.90;;;;;;5094952;28;20059;-70
2023/10/07 00:10:37;;;;;;;24.35;5.05;;;17.70;99.90;;;;;;5095430;28;20043;-70
2023/10/07 00:13:05;;;;;;;23.95;5.05;;;17.70;99.90;;;;;;5094711;28;20127;-69
2023/10/07 00:15:31;;;;;;;17.25;4.57;;;17.70;99.90;;;;;;5094987;28;20050;-70
2023/10/07 00:18:04;;;;;;;19.63;4.75;;;17.70;99.90;;;;;;5112409;28;20126;-71
2023/10/07 00:20:33;;;;;;;15.95;4.50;;;17.70;99.90;;;;;;5113329;28;20127;-70
2023/10/07 00:23:00;;;;;;;15.98;4.43;;;17.70;99.90;;;;;;5078088;28;20492;-70
2023/10/07 00:25:30;;;;;;;17.95;4.38;;;17.70;99.90;;;;;;5093876;28;20538;-70
2023/10/07 00:27:58;;;;;;;16.48;4.13;;;17.70;99.90;;;;;;5112459;28;20056;-71
2023/10/07 00:30:27;;;;;;;24.52;4.65;;;17.70;99.90;;;;;;5078187;28;20052;-69
2023/10/07 00:32:55;;;;;;;16.30;4.15;;;17.70;99.90;;;;;;5094256;28;20054;-71
2023/10/07 00:35:27;;;;;;;24.38;5.45;;;17.70;99.90;;;;;;5095063;28;20059;-68
2023/10/07 00:37:53;;;;;;;21.60;5.82;;;17.70;99.90;;;;;;5094105;28;20488;-69
2023/10/07 00:40:31;;;;;;;15.70;4.10;;;17.70;99.90;;;;;;5112691;28;20059;-69
2023/10/07 00:42:58;;;;;;;12.90;3.70;;;17.70;99.90;;;;;;5094279;28;20408;-70
2023/10/07 00:45:26;;;;;;;15.65;5.03;;;17.70;99.90;;;;;;5094777;28;20051;-69
2023/10/07 00:47:53;;;;;;;16.33;5.05;;;17.60;99.90;;;;;;5077534;28;20040;-72
2023/10/07 00:50:22;;;;;;;15.43;4.82;;;17.60;99.90;;;;;;5112640;28;20118;-70
2023/10/07 00:52:56;;;;;;;14.07;4.43;;;17.60;99.90;;;;;;5077796;28;20035;-70
2023/10/07 00:55:41;;;;;;;18.00;4.97;;;17.60;99.90;;;;;;5094713;28;20126;-69
2023/10/07 00:58:17;;;;;;;15.45;4.30;;;17.50;99.90;;;;;;5094120;28;20055;-70
2023/10/07 01:00:47;;;;;;;12.48;4.15;;;17.60;99.90;;;;;;5077747;28;20047;-69
2023/10/07 01:06:22;;;;;;;14.52;4.65;;;17.50;99.90;;;;;;5094719;28;20093;-70
2023/10/07 01:08:49;;;;;;;13.30;4.63;;;17.40;99.90;;;;;;5093818;28;20051;-70
2023/10/07 01:11:21;;;;;;;16.05;4.63;;;17.40;99.90;;;;;;5078794;28;20496;-70
2023/10/07 01:13:50;;;;;;;13.90;4.38;;;17.40;99.90;;;;;;5112482;28;20048;-70
2023/10/07 01:16:53;;;;;;;13.98;5.32;;;17.30;99.90;;;;;;5112146;28;20050;-71
2023/10/07 01:19:19;;;;;;;22.73;5.03;;;17.30;99.90;;;;;;5109454;28;20047;-71
2023/10/07 01:21:55;;;;;;;17.98;4.90;;;17.30;99.90;;;;;;5112708;28;20499;-71
2023/10/07 01:24:43;;;;;;;14.88;4.53;;;17.20;99.90;;;;;;5093754;28;20058;-71
2023/10/07 01:30:07;;;;;;;18.25;4.03;;;17.20;99.90;;;;;;5094400;28;20056;-71
2023/10/07 01:32:33;;;;;;;17.38;4.53;;;17.20;99.90;;;;;;5094531;28;20130;-71
2023/10/07 01:35:06;;;;;;;14.02;4.20;;;17.20;99.90;;;;;;5094023;28;20442;-72
2023/10/07 01:37:43;;;;;;;22.58;4.85;;;17.20;99.90;;;;;;5060992;28;20047;-71
2023/10/07 01:40:16;;;;;;;18.58;5.03;;;17.20;99.90;;;;;;5093740;28;20059;-71
2023/10/07 01:42:44;;;;;;;23.52;5.65;;;17.20;99.90;;;;;;5077317;28;20036;-71
2023/10/07 01:45:19;;;;;;;17.58;4.40;;;17.20;99.90;;;;;;5111951;28;20058;-71
2023/10/07 01:47:47;;;;;;;13.30;4.30;;;17.30;99.90;;;;;;5094445;28;20094;-71
2023/10/07 01:50:14;;;;;;;14.60;4.88;;;17.20;99.90;;;;;;5111779;28;20055;-71
2023/10/07 01:52:39;;;;;;;18.02;4.80;;;17.30;99.90;;;;;;5094374;28;20374;-72
2023/10/07 01:55:09;;;;;;;13.98;4.05;;;17.30;99.90;;;;;;5111911;28;20058;-72
2023/10/07 01:57:35;;;;;;;16.30;4.55;;;17.30;99.90;;;;;;5116962;28;20040;-71
2023/10/07 02:00:06;;;;;;;16.75;4.50;;;17.30;99.90;;;;;;5081196;28;20036;-72
2023/10/07 02:02:32;;;;;;;15.15;4.22;;;17.30;99.90;;;;;;5115842;28;20072;-72
2023/10/07 02:04:59;;;;;;;15.10;4.32;;;17.40;99.90;;;;;;5116016;28;20168;-72
2023/10/07 02:07:25;;;;;;;19.50;4.00;;;17.30;99.90;;;;;;5115799;28;20039;-71
2023/10/07 02:09:54;;;;;;;18.85;4.95;;;17.30;99.90;;;;;;5115932;28;20450;-71
2023/10/07 02:12:20;;;;;;;16.38;4.18;;;17.40;99.90;;;;;;5097499;28;20054;-72
2023/10/07 02:14:45;;;;;;;14.85;4.03;;;17.40;99.90;;;;;;5097690;28;20051;-71
2023/10/07 02:17:12;;;;;;;15.85;3.95;;;17.40;99.90;;;;;;5115500;28;20079;-71
2023/10/07 02:19:40;;;;;;;11.50;3.58;;;17.40;99.90;;;;;;5115761;28;20051;-72
2023/10/07 02:22:07;;;;;;;12.95;3.90;;;17.40;99.90;;;;;;5080218;28;20086;-72
2023/10/07 02:24:34;;;;;;;14.18;3.75;;;17.40;99.90;;;;;;5115983;28;20043;-72
2023/10/07 02:27:03;;;;;;;15.63;3.67;;;17.50;99.90;;;;;;5097401;28;20058;-72
2023/10/07 02:29:29;;;;;;;17.08;3.85;;;17.50;99.90;;;;;;5097327;28;20043;-72
2023/10/07 02:32:07;;;;;;;15.77;4.25;;;17.50;99.90;;;;;;5097195;28;20070;-71
2023/10/07 02:34:34;;;;;;;14.02;4.03;;;17.50;99.90;;;;;;5097003;28;20047;-72
2023/10/07 02:37:11;;;;;;;14.80;3.75;;;17.60;99.90;;;;;;5080506;28;20048;-72
2023/10/07 02:39:46;;;;;;;16.00;4.45;;;17.60;99.90;;;;;;5065376;28;20100;-72
2023/10/07 02:42:21;;;;;;;14.70;4.00;;;17.60;99.90;;;;;;5096932;28;20044;-72
2023/10/07 02:44:51;;;;;;;14.30;4.00;;;17.60;99.90;;;;;;5097422;28;20067;-71
2023/10/07 02:47:18;;;;;;;14.82;3.78;;;17.60;99.90;;;;;;5114722;28;20147;-72
2023/10/07 02:49:49;;;;;;;17.77;4.53;;;17.60;99.90;;;;;;5079920;28;20403;-71
2023/10/07 02:52:17;;;;;;;15.70;3.72;;;17.60;99.90;;;;;;5114753;28;20368;-71
2023/10/07 02:54:45;;;;;;;15.07;3.92;;;17.60;99.90;;;;;;5096933;28;20044;-71
2023/10/07 02:57:24;;;;;;;13.65;3.92;;;17.60;99.90;;;;;;5096832;28;20043;-71
2023/10/07 03:00:00;;;;;;;14.35;3.92;;;17.60;99.90;;;;;;5079996;28;20048;-71
2023/10/07 03:02:48;;;;;;;20.35;4.45;;;17.60;99.90;;;;;;5096291;28;20058;-72
2023/10/07 03:05:14;;;;;;;16.80;4.18;;;17.60;99.90;;;;;;5079495;28;20051;-72
2023/10/07 03:07:49;;;;;;;15.25;3.63;;;17.60;99.90;;;;;;5113779;28;20056;-71
2023/10/07 03:10:33;;;;;;;13.60;4.38;;;17.60;99.90;;;;;;5114649;28;20051;-71
2023/10/07 03:12:59;;;;;;;11.68;3.47;;;17.60;99.90;;;;;;5096513;28;20118;-71
2023/10/07 03:15:45;;;;;;;9.65;3.33;;;17.60;99.90;;;;;;5096269;28;20130;-71
2023/10/07 03:18:29;;;;;;;11.80;3.70;;;17.60;99.90;;;;;;5082502;28;20097;-71
2023/10/07 03:21:06;;;;;;;12.75;3.40;;;17.60;99.90;;;;;;5079687;28;20048;-71
2023/10/07 03:23:34;;;;;;;12.38;3.72;;;17.60;99.90;;;;;;5063913;28;20146;-71
2023/10/07 03:28:35;;;;;;;15.90;3.80;;;17.60;99.90;;;;;;5078607;28;20056;-71
2023/10/07 03:31:08;;;;;;;17.63;4.45;;;17.60;99.90;;;;;;5096159;28;20103;-71
2023/10/07 03:36:31;;;;;;;15.45;4.03;;;17.60;99.90;;;;;;5074119;28;20464;-71
2023/10/07 03:41:55;;;;;;;14.48;4.05;;;17.60;99.90;;;;;;5080936;28;20051;-71
2023/10/07 03:44:29;;;;;;;18.25;4.15;;;17.60;99.90;;;;;;5078655;28;20058;-72
2023/10/07 03:46:57;;;;;;;10.77;3.72;;;17.60;99.90;;;;;;5095775;28;20548;-71
2023/10/07 03:49:33;;;;;;;12.57;3.75;;;17.60;99.90;;;;;;5095059;28;20486;-71
2023/10/07 03:52:07;;;;;;;13.55;3.70;;;17.60;99.90;;;;;;5095748;28;20081;-72
2023/10/07 03:54:40;;;;;;;15.13;3.88;;;17.60;99.90;;;;;;5095248;28;20131;-70
2023/10/07 03:57:07;;;;;;;16.25;4.35;;;17.60;99.90;;;;;;5079558;28;20064;-71
2023/10/07 03:59:34;;;;;;;16.42;3.88;;;17.60;99.90;;;;;;5078238;28;20059;-71
2023/10/07 04:02:01;;;;;;;13.98;3.78;;;17.60;99.90;;;;;;5095585;28;20047;-72
2023/10/07 04:04:28;;;;;;;17.85;4.45;;;17.60;99.90;;;;;;5094879;28;20048;-71
2023/10/07 04:06:53;;;;;;;15.93;4.50;;;17.60;99.90;;;;;;5095192;28;20052;-71
2023/10/07 04:09:27;;;;;;;9.98;3.10;;;17.60;99.90;;;;;;5095274;28;20169;-71
2023/10/07 04:11:56;;;;;;;15.32;3.80;;;17.60;99.90;;;;;;5095434;28;20103;-71
2023/10/07 04:14:27;;;;;;;19.20;4.38;;;17.60;99.90;;;;;;5113320;28;20197;-71
2023/10/07 04:16:54;;;;;;;15.27;3.53;;;17.60;99.90;;;;;;5113258;28;20541;-70
2023/10/07 04:21:51;;;;;;;13.23;3.80;;;17.60;99.90;;;;;;5095215;28;20048;-70
2023/10/07 04:24:20;;;;;;;18.95;4.13;;;17.60;99.90;;;;;;5095189;28;20048;-71
2023/10/07 04:27:02;;;;;;;19.90;4.38;;;17.60;99.90;;;;;;5095264;28;20043;-71
2023/10/07 04:29:29;;;;;;;17.52;4.30;;;17.60;99.90;;;;;;5094772;28;20140;-71
2023/10/07 04:31:55;;;;;;;14.60;4.22;;;17.50;99.90;;;;;;5095148;28;20415;-71
2023/10/07 04:34:22;;;;;;;20.58;4.38;;;17.60;99.90;;;;;;5094799;28;20052;-70
2023/10/07 04:42:35;;;;;;;13.65;3.75;;;17.50;99.90;;;;;;5056084;28;20048;-71
2023/10/07 04:45:17;;;;;;;11.75;4.05;;;17.50;99.90;;;;;;5062937;28;20096;-71
2023/10/07 04:47:46;;;;;;;18.38;4.43;;;17.60;99.90;;;;;;5077965;28;20055;-70
2023/10/07 04:52:40;;;;;;;16.95;4.28;;;17.60;99.90;;;;;;5077807;28;20043;-71
2023/10/07 04:55:15;;;;;;;15.98;3.83;;;17.50;99.90;;;;;;5077772;28;20052;-70
2023/10/07 05:00:27;;;;;;;13.43;3.80;;;17.60;99.90;;;;;;5094609;28;20140;-70
2023/10/07 05:02:57;;;;;;;14.23;3.85;;;17.90;99.90;;;;;;5094551;28;20043;-71
2023/10/07 05:05:30;;;;;;;15.10;4.18;;;17.60;99.90;;;;;;5078542;28;20108;-72
2023/10/07 05:08:17;;;;;;;13.65;3.83;;;17.50;99.90;;;;;;5111408;28;20051;-71
2023/10/07 05:10:50;;;;;;;17.85;4.85;;;17.60;99.90;;;;;;5077453;28;20094;-71
2023/10/07 05:13:16;;;;;;;15.75;4.45;;;17.60;99.90;;;;;;5094661;28;20066;-71
2023/10/07 05:15:42;;;;;;;14.43;4.18;;;17.50;99.90;;;;;;5112198;28;20047;-72
2023/10/07 05:18:12;;;;;;;18.25;4.43;;;17.60;99.90;;;;;;5112980;28;20083;-71
2023/10/07 05:20:39;;;;;;;17.13;3.90;;;17.60;99.90;;;;;;5094414;28;20083;-71
2023/10/07 05:23:06;;;;;;;25.60;4.30;;;17.60;99.90;;;;;;5094652;28;20485;-71
2023/10/07 05:25:43;;;;;;;16.20;4.35;;;17.60;99.90;;;;;;5094717;28;20047;-71
2023/10/07 05:28:16;;;;;;;19.20;4.10;;;17.60;99.90;;;;;;5094700;28;20130;-71
2023/10/07 05:30:52;;;;;;;13.77;4.30;;;17.60;99.90;;;;;;5078696;28;20087;-72
2023/10/07 05:33:25;;;;;;;12.43;4.15;;;17.50;99.90;;;;;;5098831;28;20043;-71
2023/10/07 05:36:13;;;;;;;15.10;4.13;;;17.60;99.90;;;;;;5116130;28;20039;-72
2023/10/07 05:38:44;;;;;;;11.48;4.00;;;17.60;99.90;;;;;;5116316;28;20047;-71
2023/10/07 05:41:14;;;;;;;14.23;3.95;;;17.60;99.90;;;;;;5060847;28;20052;-72
2023/10/07 05:43:48;;;;;;;16.02;3.85;;;17.60;99.90;;;;;;5077685;28;20084;-72
2023/10/07 05:46:19;;;;;;;21.13;4.88;;;17.50;99.90;;;;;;5078478;28;20077;-71
2023/10/07 05:48:45;;;;;;;15.25;4.13;;;17.60;99.90;;;;;;5094463;28;20087;-71
2023/10/07 05:51:11;;;;;;;16.23;4.38;;;17.60;99.90;;;;;;5094466;28;20051;-71
2023/10/07 05:53:39;;;;;;;15.43;4.68;;;17.60;99.90;;;;;;5095822;28;20355;-70
2023/10/07 05:56:06;;;;;;;13.95;4.13;;;17.60;99.90;;;;;;5095740;28;20153;-71
2023/10/07 05:58:36;;;;;;;18.67;4.40;;;17.50;99.90;;;;;;5094835;28;20044;-71
2023/10/07 06:01:03;;;;;;;18.20;4.25;;;17.50;99.90;;;;;;5094365;28;20052;-71
2023/10/07 06:03:30;;;;;;;16.55;4.32;;;17.50;99.90;;;;;;5095520;28;20087;-71
2023/10/07 06:05:59;;;;;;;18.73;4.78;;;17.50;99.90;;;;;;5095389;28;20059;-70
2023/10/07 06:08:28;;;;;;;17.80;4.97;;;17.50;99.90;;;;;;5095877;28;20040;-70
2023/10/07 06:10:57;;;;;;;13.80;4.55;;;17.40;99.90;;;;;;5095159;28;20044;-68
2023/10/07 06:13:26;;;;;;;20.00;5.50;;;17.50;99.90;;;;;;5095309;28;20052;-70
2023/10/07 06:15:53;;;;;;;15.65;4.43;;;17.40;99.90;;;;;;5095403;28;20090;-70
2023/10/07 06:18:18;;;;;;;13.90;4.47;;;17.40;99.90;;;;;;5094298;28;20505;-70
2023/10/07 06:20:54;;;;;;;15.50;4.38;;;17.30;99.90;;;;;;5094567;28;20077;-72
2023/10/07 06:23:24;;;;;;;15.60;4.70;;;17.30;99.90;;;;;;5093966;28;20051;-70
2023/10/07 06:25:51;;;;;;;15.50;4.93;;;17.30;99.90;;;;;;5093400;28;20520;-70
2023/10/07 06:28:29;;;;;;;11.77;3.97;;;17.30;99.90;;;;;;5093794;28;20040;-70
2023/10/07 06:31:41;;;;;;;17.33;4.10;;;17.30;99.90;;;;;;5094429;28;20218;-69
2023/10/07 06:34:25;;;;;;;11.65;4.50;;;17.30;99.90;;;;;;5091286;28;20062;-70
2023/10/07 06:36:45;;;;;;;21.90;5.28;;;17.30;99.90;;;;;;5081288;28;20048;-73
2023/10/07 06:39:11;;;;;;;15.50;5.18;;;17.30;99.90;;;;;;5093862;28;20055;-71
2023/10/07 06:41:38;;;;;;;21.58;5.32;;;17.30;99.90;;;;;;5059827;28;20052;-71
2023/10/07 06:44:08;;;;;;;16.20;5.53;;;17.30;99.90;;;;;;5060108;28;20055;-72
2023/10/07 06:46:40;;;;;;;13.00;4.25;;;17.30;99.90;;;;;;5094943;28;20048;-72
2023/10/07 06:49:19;;;;;;;15.15;4.70;;;17.30;99.90;;;;;;5093191;28;20063;-71
2023/10/07 06:51:56;;;;;;;16.02;5.15;;;17.30;99.90;;;;;;5094277;28;20040;-73
2023/10/07 06:54:23;;;;;;;14.48;5.30;;;17.30;99.90;;;;;;5094786;28;20047;-71
2023/10/07 06:56:51;;;;;;;13.73;4.72;;;17.40;99.90;;;;;;5093786;28;20512;-73
2023/10/07 06:59:17;;;;;;;17.08;4.68;;;17.30;99.90;;;;;;5076487;28;20051;-71
2023/10/07 07:04:10;;;;;;;19.02;5.32;;;17.30;99.90;;;;;;5076180;28;20567;-71
2023/10/07 07:06:43;;;;;;;14.93;4.63;;;17.40;99.90;;;;;;5094325;28;20409;-71
2023/10/07 07:11:59;;;;;;;19.67;4.90;;;17.40;99.90;;;;;;5093050;28;20048;-71
2023/10/07 07:14:28;;;;;;;14.10;4.63;;;17.40;99.90;;;;;;5094106;28;20185;-72
2023/10/07 07:17:28;;;;;;;16.60;4.80;;;17.40;99.90;;;;;;5093160;28;20420;-72
2023/10/07 07:19:44;;;;;;;16.40;4.05;;;17.40;99.90;;;;;;5092332;28;20063;-72
2023/10/07 07:22:11;;;;;;;12.88;3.63;;;17.70;99.90;;;;;;5092529;28;20160;-72
2023/10/07 07:24:37;;;;;;;12.35;4.03;;;17.50;99.90;;;;;;5092716;28;20460;-73
2023/10/07 07:27:03;;;;;;;13.85;3.75;;;17.50;99.90;;;;;;5092607;28;20138;-72
2023/10/07 07:29:30;;;;;;;14.05;3.45;;;17.50;99.90;;;;;;5092826;28;20091;-71
2023/10/07 07:31:56;;;;;;;13.07;3.47;;;17.50;99.90;;;;;;5075970;28;20048;-72
2023/10/07 07:34:26;;;;;;;11.88;3.50;;;17.50;99.90;;;;;;5092748;28;20059;-73
2023/10/07 07:37:04;;;;;;;15.80;3.88;;;17.50;99.90;;;;;;5094033;28;20406;-72
2023/10/07 07:39:30;;;;;;;15.15;4.05;;;17.50;99.90;;;;;;5093733;28;20477;-72
2023/10/07 07:42:15;;;;;;;12.98;4.07;;;17.50;99.90;;;;;;5111849;28;20388;-74
2023/10/07 07:44:57;;;;;;;15.35;3.75;;;17.50;99.90;;;;;;5095913;28;20051;-72
2023/10/07 07:47:24;;;;;;;13.77;3.65;;;17.60;99.90;;;;;;5079009;28;20481;-71
2023/10/07 07:49:51;;;;;;;10.02;3.92;;;17.60;99.90;;;;;;5095634;28;20431;-72
2023/10/07 07:52:17;;;;;;;11.25;3.90;;;17.60;99.90;;;;;;5078087;28;20058;-71
2023/10/07 07:54:42;;;;;;;12.93;3.75;;;17.70;99.90;;;;;;5113332;28;20092;-71
2023/10/07 07:57:08;;;;;;;13.50;3.88;;;17.70;99.90;;;;;;5095206;28;20468;-71
2023/10/07 07:59:34;;;;;;;10.73;3.65;;;17.80;99.90;;;;;;5095767;28;20419;-70
2023/10/07 08:02:24;;;;;;;18.50;4.18;;;17.80;99.90;;;;;;5078174;28;20085;-71
2023/10/07 08:04:49;;;;;;;15.35;4.07;;;17.80;99.90;;;;;;5081045;28;20084;-67
2023/10/07 08:07:23;;;;;;;12.93;4.28;;;17.90;99.90;;;;;;5113002;28;20047;-69
2023/10/07 08:09:52;;;;;;;15.57;3.58;;;17.90;99.90;;;;;;5113588;28;20044;-68
2023/10/07 08:12:19;;;;;;;14.77;3.63;;;18.00;99.90;;;;;;5095008;28;20046;-67
2023/10/07 08:14:50;;;;;;;10.82;3.33;;;18.10;99.90;;;;;;5078045;28;20051;-67
2023/10/07 08:17:19;;;;;;;10.13;3.33;;;18.10;99.90;;;;;;5094852;28;20051;-68
2023/10/07 08:19:52;;;;;;;11.10;3.45;;;18.10;99.90;;;;;;5095395;28;20527;-68
2023/10/07 08:22:20;;;;;;;11.95;3.47;;;18.10;99.90;;;;;;5094452;28;20044;-68
2023/10/07 08:24:47;;;;;;;15.75;3.20;;;18.20;99.90;;;;;;5094939;28;20050;-67
2023/10/07 08:30:05;;;;;;;11.98;3.42;;;18.10;99.90;;;;;;5113052;28;20050;-68
2023/10/07 08:32:41;;;;;;;12.00;3.50;;;18.20;99.90;;;;;;5094701;28;20055;-68
2023/10/07 08:35:18;;;;;;;12.95;3.70;;;18.20;99.90;;;;;;5094549;28;20096;-69
2023/10/07 08:37:48;;;;;;;12.93;3.50;;;18.10;99.90;;;;;;5095058;28;20047;-67
2023/10/07 08:40:25;;;;;;;14.68;3.95;;;18.10;99.90;;;;;;5094080;28;20102;-67
2023/10/07 08:43:00;;;;;;;13.40;4.10;;;18.20;99.90;;;;;;5112495;28;20158;-67
2023/10/07 08:45:30;;;;;;;18.40;4.30;;;18.20;99.90;;;;;;5094400;28;20060;-68
2023/10/07 08:48:15;;;;;;;15.45;4.40;;;18.20;99.90;;;;;;5112387;28;20052;-67
2023/10/07 08:50:59;;;;;;;12.70;3.13;;;18.30;99.90;;;;;;5112955;28;20055;-67
2023/10/07 08:53:26;;;;;;;21.05;4.28;;;18.30;99.90;;;;;;5094555;28;20047;-69
2023/10/07 08:55:54;;;;;;;14.88;4.18;;;18.40;99.90;;;;;;5094539;28;20051;-68
2023/10/07 08:58:26;;;;;;;17.85;4.35;;;18.40;99.90;;;;;;5112303;28;20044;-70
2023/10/07 09:00:53;;;;;;;17.15;4.00;;;18.40;99.90;;;;;;5112755;28;20039;-71
2023/10/07 09:03:19;;;;;;;19.00;4.40;;;18.40;99.90;;;;;;5112069;28;20043;-71
2023/10/07 09:05:48;;;;;;;14.18;4.47;;;18.40;99.90;;;;;;5114188;28;20043;-70
2023/10/07 09:08:15;;;;;;;15.32;4.57;;;18.40;99.90;;;;;;5116738;28;20539;-70
2023/10/07 09:10:48;;;;;;;17.52;4.03;;;18.40;99.90;;;;;;5116744;28;20050;-70
2023/10/07 09:13:26;;;;;;;12.48;3.80;;;18.30;99.90;;;;;;5098232;28;20401;-71
2023/10/07 09:15:53;;;;;;;16.40;3.90;;;18.40;99.90;;;;;;5117171;28;20051;-70
2023/10/07 09:18:28;;;;;;;13.52;3.97;;;18.40;99.90;;;;;;5098273;28;20044;-71
2023/10/07 09:20:56;;;;;;;19.25;4.70;;;18.40;99.90;;;;;;5116854;28;20083;-71
2023/10/07 09:23:24;;;;;;;16.35;4.72;;;18.40;99.90;;;;;;5116811;28;20059;-71
2023/10/07 09:25:51;;;;;;;16.52;4.35;;;18.40;99.90;;;;;;5098694;28;20055;-70
2023/10/07 09:28:19;;;;;;;14.02;4.60;;;18.50;99.90;;;;;;5116039;28;20047;-72
2023/10/07 09:30:46;;;;;;;11.45;3.90;;;18.50;99.90;;;;;;5116424;28;20450;-71
2023/10/07 09:33:14;;;;;;;18.63;4.90;;;18.50;99.90;;;;;;5116256;28;20131;-72
2023/10/07 09:35:49;;;;;;;13.63;4.85;;;18.50;99.90;;;;;;5116389;28;20047;-70
2023/10/07 09:38:33;;;;;;;18.52;4.80;;;18.50;99.90;;;;;;5116086;28;20326;-72
2023/10/07 09:43:43;;;;;;;14.77;4.63;;;18.40;99.90;;;;;;5095841;28;20044;-70
2023/10/07 09:46:10;;;;;;;15.45;4.75;;;18.40;99.90;;;;;;5096142;28;20051;-70
2023/10/07 09:48:41;;;;;;;15.32;4.90;;;18.40;99.90;;;;;;5094621;28;20065;-70
2023/10/07 09:51:24;;;;;;;15.93;4.25;;;18.40;99.90;;;;;;5094799;28;20059;-71
2023/10/07 09:54:27;;;;;;;21.48;4.50;;;18.50;99.90;;;;;;5095543;28;20554;-70
2023/10/07 09:57:06;;;;;;;14.57;4.70;;;18.40;99.90;;;;;;5095443;28;20044;-69
2023/10/07 10:00:00;;;;;;;15.93;5.60;;;18.40;99.90;;;;;;5095252;28;20404;-70
2023/10/07 10:02:51;;;;;;;15.02;3.92;;;18.40;99.90;;;;;;5094979;28;20408;-70
2023/10/07 10:05:37;;;;;;;16.25;4.93;;;18.40;99.90;;;;;;5095336;28;20134;-72
2023/10/07 10:08:27;;;;;;;14.57;5.03;;;18.40;99.90;;;;;;5095149;28;20040;-69
2023/10/07 10:10:58;;;;;;;16.40;4.70;;;18.50;99.90;;;;;;5094404;28;20054;-69
2023/10/07 10:16:44;;;;;;;15.98;4.35;;;18.50;99.90;;;;;;5094644;28;20064;-69
2023/10/07 10:22:10;;;;;;;15.65;4.93;;;18.50;99.90;;;;;;5085219;28;20405;-69
2023/10/07 10:24:42;;;;;;;18.13;4.85;;;18.60;99.90;;;;;;5093870;28;20052;-69
2023/10/07 10:27:17;;;;;;;19.92;4.93;;;18.70;99.90;;;;;;5094379;28;20043;-71
2023/10/07 10:30:03;;;;;;;18.77;4.80;;;18.70;99.90;;;;;;5094264;28;20080;-71
2023/10/07 10:32:29;;;;;;;17.13;4.85;;;18.80;99.90;;;;;;5094748;28;20079;-70
2023/10/07 10:35:04;;;;;;;16.90;4.68;;;18.80;99.90;;;;;;5094486;28;20050;-70
2023/10/07 10:37:30;;;;;;;17.60;5.57;;;18.90;99.90;;;;;;5093160;28;20080;-69
2023/10/07 10:40:14;;;;;;;14.30;4.72;;;18.90;99.90;;;;;;5093477;28;20413;-70
2023/10/07 10:42:47;;;;;;;17.40;5.20;;;19.00;99.90;;;;;;5114983;28;20401;-70
2023/10/07 10:45:24;;;;;;;19.27;5.50;;;19.00;99.90;;;;;;5114944;28;20103;-70
2023/10/07 10:47:52;;;;;;;14.23;4.43;;;18.90;99.90;;;;;;5115170;28;20396;-70
2023/10/07 10:50:20;;;;;;;17.85;5.00;;;19.00;99.90;;;;;;5115223;28;20051;-67
2023/10/07 10:52:54;;;;;;;14.95;4.22;;;19.00;99.90;;;;;;5114894;28;20192;-69
2023/10/07 10:55:23;;;;;;;12.93;4.63;;;19.10;99.90;;;;;;5114625;28;20126;-69
2023/10/07 10:57:50;;;;;;;17.85;4.90;;;19.10;99.90;;;;;;5080823;28;20039;-70
2023/10/07 11:00:19;;;;;;;15.20;4.47;;;19.20;99.90;;;;;;5115019;28;20082;-70
2023/10/07 11:02:46;;;;;;;12.70;5.07;;;19.20;99.90;;;;;;5114706;28;20048;-70
2023/10/07 11:05:15;;;;;;;16.00;4.53;;;19.10;99.90;;;;;;5115189;28;20052;-68
2023/10/07 11:07:42;;;;;;;12.43;4.55;;;19.10;99.90;;;;;;5118261;28;20040;-70
2023/10/07 11:10:10;;;;;;;11.95;4.43;;;19.10;99.90;;;;;;5097865;28;20059;-70
2023/10/07 11:12:37;;;;;;;17.65;5.57;;;19.00;99.90;;;;;;5114359;28;20092;-70
2023/10/07 11:15:14;;;;;;;17.02;5.22;;;18.90;99.90;;;;;;5096346;28;20508;-69
2023/10/07 11:17:43;;;;;;;19.30;5.18;;;18.90;99.90;;;;;;5096322;28;20074;-70
2023/10/07 11:20:12;;;;;;;10.63;4.40;;;18.90;99.90;;;;;;5114505;28;20044;-70
2023/10/07 11:22:39;;;;;;;12.35;4.32;;;19.00;99.90;;;;;;5114263;28;20043;-70
2023/10/07 11:25:14;;;;;;;16.75;4.63;;;18.90;99.90;;;;;;5096537;28;20439;-71
2023/10/07 11:27:42;;;;;;;12.43;3.85;;;18.90;99.90;;;;;;5095286;28;20473;-69
2023/10/07 11:30:11;;;;;;;17.58;4.40;;;18.90;99.90;;;;;;5096072;28;20412;-70
2023/10/07 11:32:40;;;;;;;19.75;5.25;;;18.90;99.90;;;;;;5113749;28;20055;-70
2023/10/07 11:35:28;;;;;;;13.80;4.60;;;18.90;99.90;;;;;;5113819;28;20496;-70
2023/10/07 11:37:58;;;;;;;12.50;4.50;;;18.80;99.90;;;;;;5113759;28;20044;-69
2023/10/07 11:40:27;;;;;;;18.35;4.65;;;18.80;99.90;;;;;;5096253;28;20060;-70
2023/10/07 11:42:54;;;;;;;11.73;4.53;;;18.80;99.90;;;;;;5113538;28;20040;-70
2023/10/07 11:45:23;;;;;;;12.07;4.45;;;18.80;99.90;;;;;;5095652;28;20123;-70
2023/10/07 11:47:49;;;;;;;18.55;4.68;;;18.90;99.90;;;;;;5095220;28;20066;-73
2023/10/07 11:50:16;;;;;;;16.70;4.90;;;18.90;99.90;;;;;;5113655;28;20039;-70
2023/10/07 11:52:42;;;;;;;13.23;4.43;;;19.00;99.90;;;;;;5113251;28;20493;-71
2023/10/07 11:55:09;;;;;;;16.63;5.05;;;19.00;99.90;;;;;;5095375;28;20056;-69
2023/10/07 11:57:37;;;;;;;16.40;4.63;;;19.00;99.90;;;;;;5113248;28;20060;-74
2023/10/07 12:00:13;;;;;;;14.25;4.68;;;19.10;99.90;;;;;;5078512;28;20408;-68
2023/10/07 12:02:39;;;;;;;14.95;5.03;;;19.10;99.90;;;;;;5113155;28;20474;-70
2023/10/07 12:05:07;;;;;;;15.57;4.53;;;19.10;99.90;;;;;;5095078;28;20043;-67
2023/10/07 12:07:36;;;;;;;17.02;5.22;;;19.10;99.90;;;;;;5113217;28;20047;-68
2023/10/07 12:10:06;;;;;;;14.63;4.82;;;19.00;99.90;;;;;;5095307;28;20073;-66
2023/10/07 12:12:32;;;;;;;13.13;4.68;;;19.00;99.90;;;;;;5113169;28;20046;-66
2023/10/07 12:14:59;;;;;;;10.68;4.10;;;19.00;99.90;;;;;;5078103;28;20119;-66
2023/10/07 12:17:25;;;;;;;15.27;4.60;;;19.00;99.90;;;;;;5112962;28;20051;-66
2023/10/07 12:19:50;;;;;;;16.55;5.10;;;19.00;99.90;;;;;;5094379;28;20070;-66
2023/10/07 12:22:16;;;;;;;9.77;4.18;;;19.00;99.90;;;;;;5094696;28;20079;-66
2023/10/07 12:24:42;;;;;;;13.70;4.45;;;19.00;99.90;;;;;;5077557;28;20154;-67
2023/10/07 12:27:10;;;;;;;14.90;4.88;;;18.90;99.90;;;;;;5112994;28;20039;-68
2023/10/07 12:29:36;;;;;;;15.45;5.07;;;19.00;99.90;;;;;;5077965;28;20090;-69
2023/10/07 12:32:01;;;;;;;16.48;4.90;;;19.00;99.90;;;;;;5112499;28;20438;-71
2023/10/07 12:34:30;;;;;;;16.73;5.07;;;19.00;99.90;;;;;;5112526;28;20078;-69
2023/10/07 12:36:56;;;;;;;19.52;5.15;;;19.10;99.90;;;;;;5112305;28;20051;-68
2023/10/07 12:39:22;;;;;;;12.23;4.63;;;19.10;99.90;;;;;;5112567;28;20070;-68
2023/10/07 12:41:48;;;;;;;14.50;4.72;;;19.10;99.90;;;;;;5111810;28;20059;-68
2023/10/07 12:44:14;;;;;;;16.60;4.85;;;19.10;99.90;;;;;;5112586;28;20063;-67
2023/10/07 12:46:41;;;;;;;16.25;4.68;;;19.10;99.90;;;;;;5094733;28;20050;-66
2023/10/07 12:49:14;;;;;;;15.48;4.95;;;19.10;99.90;;;;;;5112273;28;20050;-66
2023/10/07 12:51:44;;;;;;;14.27;4.80;;;19.00;99.90;;;;;;5112626;28;20049;-67
2023/10/07 12:54:11;;;;;;;12.52;4.55;;;19.10;99.90;;;;;;5112478;28;20130;-66
2023/10/07 12:56:38;;;;;;;11.63;4.35;;;19.10;99.90;;;;;;5112119;28;20054;-67
2023/10/07 12:59:17;;;;;;;15.80;5.32;;;19.10;99.90;;;;;;5112038;28;20698;-67
2023/10/07 13:01:47;;;;;;;17.20;4.88;;;19.10;99.90;;;;;;5112314;28;20131;-74
2023/10/07 13:04:13;;;;;;;16.75;4.60;;;19.00;99.90;;;;;;5112728;28;20123;-67
2023/10/07 13:06:42;;;;;;;14.70;4.40;;;19.00;99.90;;;;;;5094190;28;20504;-67
2023/10/07 13:09:16;;;;;;;18.92;5.03;;;19.00;99.90;;;;;;5093735;28;20047;-71
2023/10/07 13:11:45;;;;;;;21.33;5.40;;;19.00;99.90;;;;;;5112698;28;20363;-68
2023/10/07 13:14:12;;;;;;;20.80;4.80;;;18.90;99.90;;;;;;5112612;28;20066;-68
2023/10/07 13:16:39;;;;;;;16.08;5.10;;;18.90;99.90;;;;;;5112094;28;20396;-67
2023/10/07 13:19:05;;;;;;;14.13;4.13;;;18.80;99.90;;;;;;5093871;28;20051;-67
2023/10/07 13:21:32;;;;;;;18.10;4.53;;;18.80;99.90;;;;;;5112539;28;20040;-67
2023/10/07 13:23:57;;;;;;;15.93;4.60;;;18.70;99.90;;;;;;5112137;28;20074;-67
2023/10/07 13:26:23;;;;;;;12.93;4.40;;;18.70;99.90;;;;;;5112641;28;20039;-68
2023/10/07 13:28:49;;;;;;;11.63;4.57;;;18.60;99.90;;;;;;5077211;28;20260;-74
2023/10/07 13:31:17;;;;;;;13.10;4.95;;;18.60;99.90;;;;;;5112153;28;20040;-66
2023/10/07 13:33:44;;;;;;;14.68;4.97;;;18.60;99.90;;;;;;5094474;28;20051;-67
2023/10/07 13:36:10;;;;;;;18.10;4.72;;;18.60;99.90;;;;;;5093986;28;20132;-68
2023/10/07 13:38:36;;;;;;;14.07;4.72;;;18.60;99.90;;;;;;5111924;28;20126;-67
2023/10/07 13:41:03;;;;;;;18.42;4.82;;;18.60;99.90;;;;;;5111445;28;20441;-67